createdAt,value
2022-08-22T00:01:56.664Z,7.80
2022-08-22T00:07:08.518Z,8.10
2022-08-22T00:12:19.955Z,11.60
2022-08-22T00:17:38.757Z,8.20
2022-08-22T00:23:17.656Z,8.50
2022-08-22T00:28:26.801Z,7.30
2022-08-22T00:34:10.211Z,6.80
2022-08-22T00:39:40.738Z,9.30
2022-08-22T00:45:33.253Z,7.30
2022-08-22T00:51:09.398Z,8.00
2022-08-22T00:57:03.490Z,8.80
2022-08-22T01:02:15.197Z,8.30
2022-08-22T01:07:47.945Z,9.40
2022-08-22T01:13:43.262Z,8.10
2022-08-22T01:19:30.683Z,10.00
2022-08-22T01:25:22.584Z,10.30
2022-08-22T01:31:09.596Z,9.70
2022-08-22T01:36:36.059Z,8.90
2022-08-22T01:42:15.215Z,9.60
2022-08-22T01:47:39.873Z,8.20
2022-08-22T01:52:47.197Z,9.00
2022-08-22T01:58:02.205Z,10.70
2022-08-22T02:03:22.886Z,9.30
2022-08-22T02:08:42.338Z,9.50
2022-08-22T02:13:59.893Z,9.40
2022-08-22T02:19:21.495Z,7.70
2022-08-22T02:24:33.435Z,9.90
2022-08-22T02:30:10.345Z,12.40
2022-08-22T02:35:14.367Z,8.90
2022-08-22T02:40:27.524Z,8.90
2022-08-22T02:46:13.991Z,10.50
2022-08-22T02:51:27.292Z,8.70
2022-08-22T02:56:40.427Z,9.20
2022-08-22T03:01:45.830Z,10.70
2022-08-22T03:07:14.635Z,12.00
2022-08-22T03:12:29.679Z,9.90
2022-08-22T03:17:59.787Z,11.50
2022-08-22T03:23:28.053Z,11.80
2022-08-22T03:28:59.258Z,9.30
2022-08-22T03:34:24.824Z,11.20
2022-08-22T03:39:51.160Z,11.50
2022-08-22T03:45:24.107Z,10.30
2022-08-22T03:51:15.787Z,9.30
2022-08-22T03:56:40.123Z,9.30
2022-08-22T04:02:04.209Z,8.40
2022-08-22T04:07:55.665Z,9.30
2022-08-22T04:13:32.881Z,11.00
2022-08-22T04:18:58.258Z,10.20
2022-08-22T04:24:53.558Z,10.00
2022-08-22T04:30:21.467Z,10.00
2022-08-22T04:35:34.230Z,8.50
2022-08-22T04:40:46.839Z,10.00
2022-08-22T04:46:05.225Z,10.80
2022-08-22T04:51:20.008Z,11.40
2022-08-22T04:56:41.185Z,12.50
2022-08-22T05:01:56.729Z,8.60
2022-08-22T05:07:20.454Z,9.70
2022-08-22T05:12:32.018Z,11.60
2022-08-22T05:17:36.466Z,11.10
2022-08-22T05:22:46.800Z,11.30
2022-08-22T05:27:53.291Z,10.20
2022-08-22T05:33:39.866Z,11.70
2022-08-22T05:39:23.707Z,8.90
2022-08-22T05:44:37.789Z,7.10
2022-08-22T05:50:02.190Z,8.40
2022-08-22T05:55:28.392Z,10.50
2022-08-22T06:00:33.011Z,9.80
2022-08-22T06:05:38.657Z,12.40
2022-08-22T06:10:48.183Z,9.80
2022-08-22T06:15:55.398Z,8.80
2022-08-22T06:21:03.826Z,8.20
2022-08-22T06:31:41.983Z,10.20
2022-08-22T06:36:48.718Z,11.10
2022-08-22T06:42:21.530Z,10.30
2022-08-22T06:47:33.121Z,8.50
2022-08-22T06:52:49.498Z,9.70
2022-08-22T06:58:43.696Z,8.60
2022-08-22T07:03:59.600Z,10.30
2022-08-22T07:09:06.276Z,9.20
2022-08-22T07:14:14.649Z,7.30
2022-08-22T07:19:33.581Z,10.00
2022-08-22T07:24:36.603Z,8.80
2022-08-22T07:29:44.329Z,8.80
2022-08-22T07:35:11.367Z,8.60
2022-08-22T07:40:34.007Z,8.00
2022-08-22T07:45:52.870Z,8.90
2022-08-22T07:51:00.658Z,8.70
2022-08-22T07:56:04.737Z,6.40
2022-08-22T08:01:15.393Z,7.50
2022-08-22T08:06:18.190Z,7.10
2022-08-22T08:11:22.628Z,6.20
2022-08-22T08:16:28.583Z,7.80
2022-08-22T08:21:37.714Z,10.80
2022-08-22T08:27:04.579Z,8.90
2022-08-22T08:32:09.633Z,9.10
2022-08-22T08:37:20.565Z,6.50
2022-08-22T08:43:01.309Z,7.90
2022-08-22T08:48:44.604Z,9.40
2022-08-22T08:54:22.136Z,6.60
2022-08-22T08:59:44.233Z,8.60
2022-08-22T09:05:25.396Z,6.40
2022-08-22T09:11:09.723Z,11.30
2022-08-22T09:16:53.889Z,7.70
2022-08-22T09:22:27.926Z,8.20
2022-08-22T09:27:47.644Z,8.00
2022-08-22T09:33:02.737Z,6.60
2022-08-22T09:38:34.755Z,8.70
2022-08-22T09:44:08.610Z,8.10
2022-08-22T09:49:27.059Z,6.30
2022-08-22T09:54:49.464Z,6.50
2022-08-22T10:00:15.398Z,7.80
2022-08-22T10:05:40.893Z,6.60
2022-08-22T10:11:19.032Z,7.40
2022-08-22T10:16:41.385Z,6.30
2022-08-22T10:22:16.751Z,7.80
2022-08-22T10:27:51.881Z,6.50
2022-08-22T10:33:19.447Z,6.40
2022-08-22T10:38:55.998Z,5.60
2022-08-22T10:44:15.559Z,7.40
2022-08-22T10:49:33.827Z,5.30
2022-08-22T11:00:31.207Z,6.00
2022-08-22T11:05:41.288Z,9.00
2022-08-22T11:11:23.654Z,6.10
2022-08-22T11:17:28.015Z,6.50
2022-08-22T11:22:34.106Z,11.50
2022-08-22T11:28:21.879Z,6.70
2022-08-22T11:33:46.322Z,6.80
2022-08-22T11:39:21.045Z,8.30
2022-08-22T11:44:56.122Z,8.60
2022-08-22T11:50:35.895Z,6.10
2022-08-22T11:56:05.563Z,8.80
2022-08-22T12:01:18.383Z,7.90
2022-08-22T12:06:49.667Z,9.90
2022-08-22T12:12:31.324Z,7.00
2022-08-22T12:18:26.718Z,7.10
2022-08-22T12:24:20.986Z,9.30
2022-08-22T12:30:12.977Z,7.50
2022-08-22T12:35:35.245Z,5.80
2022-08-22T12:40:57.347Z,10.10
2022-08-22T12:46:13.193Z,9.30
2022-08-22T12:51:46.834Z,8.60
2022-08-22T12:57:02.512Z,7.60
2022-08-22T13:02:25.624Z,11.40
2022-08-22T13:07:38.472Z,8.60
2022-08-22T13:12:47.283Z,9.90
2022-08-22T13:18:29.839Z,8.10
2022-08-22T13:23:51.016Z,9.50
2022-08-22T13:34:45.141Z,7.90
2022-08-22T13:39:49.404Z,7.50
2022-08-22T13:44:54.298Z,7.70
2022-08-22T13:50:06.441Z,8.60
2022-08-22T13:55:19.662Z,8.70
2022-08-22T14:01:06.613Z,9.80
2022-08-22T14:06:37.373Z,8.30
2022-08-22T14:11:51.583Z,15.30
2022-08-22T14:16:55.280Z,13.10
2022-08-22T14:22:01.905Z,10.90
2022-08-22T14:27:14.973Z,7.70
2022-08-22T14:32:23.833Z,9.10
2022-08-22T14:37:35.015Z,8.40
2022-08-22T14:42:56.292Z,12.40
2022-08-22T14:48:29.949Z,11.90
2022-08-22T14:53:37.295Z,8.10
2022-08-22T14:58:52.250Z,8.20
2022-08-22T15:04:02.977Z,11.20
2022-08-22T15:09:14.193Z,8.90
2022-08-22T15:14:26.387Z,9.30
2022-08-22T15:19:41.219Z,15.10
2022-08-22T15:25:02.751Z,6.70
2022-08-22T15:30:20.431Z,11.40
2022-08-22T15:35:30.018Z,9.70
2022-08-22T15:40:43.693Z,7.20
2022-08-22T15:45:51.990Z,10.10
2022-08-22T15:50:56.205Z,8.10
2022-08-22T15:56:11.189Z,10.00
2022-08-22T16:01:19.636Z,14.50
2022-08-22T16:06:56.751Z,16.00
2022-08-22T16:12:03.470Z,15.00
2022-08-22T16:17:30.509Z,10.90
2022-08-22T16:22:59.646Z,12.50
2022-08-22T16:28:02.496Z,10.50
2022-08-22T16:33:06.953Z,10.50
2022-08-22T16:38:36.578Z,17.30
2022-08-22T16:43:39.630Z,12.40
2022-08-22T16:49:01.054Z,11.50
2022-08-22T16:54:12.859Z,16.00
2022-08-22T16:59:24.122Z,15.70
2022-08-22T17:04:54.090Z,20.30
2022-08-22T17:10:17.583Z,15.20
2022-08-22T17:16:04.481Z,13.90
2022-08-22T17:21:29.535Z,14.30
2022-08-22T17:26:55.188Z,13.10
2022-08-22T17:32:33.526Z,14.10
2022-08-22T17:37:59.557Z,10.30
2022-08-22T17:43:11.294Z,9.60
2022-08-22T17:48:39.382Z,12.10
2022-08-22T17:53:54.969Z,11.80
2022-08-22T17:59:00.956Z,11.50
2022-08-22T18:04:06.690Z,12.20
2022-08-22T18:09:37.873Z,9.50
2022-08-22T18:14:51.713Z,12.90
2022-08-22T18:20:15.415Z,13.80
2022-08-22T18:25:18.136Z,11.50
2022-08-22T18:30:30.128Z,15.70
2022-08-22T18:35:50.017Z,12.80
2022-08-22T18:41:07.035Z,13.90
2022-08-22T18:46:44.632Z,11.50
2022-08-22T18:52:05.742Z,12.60
2022-08-22T18:57:46.543Z,12.20
2022-08-22T19:02:55.929Z,12.40
2022-08-22T19:08:46.896Z,15.80
2022-08-22T19:14:22.663Z,15.30
2022-08-22T19:20:09.599Z,12.60
2022-08-22T19:25:26.324Z,14.10
2022-08-22T19:30:52.449Z,19.00
2022-08-22T19:36:12.874Z,12.90
2022-08-22T19:41:39.303Z,14.20
2022-08-22T19:46:42.278Z,16.00
2022-08-22T19:51:46.001Z,11.30
2022-08-22T19:57:18.928Z,14.30
2022-08-22T20:03:01.997Z,13.40
2022-08-22T20:08:18.316Z,14.30
2022-08-22T20:13:25.656Z,15.50
2022-08-22T20:19:09.329Z,13.70
2022-08-22T20:24:39.585Z,13.30
2022-08-22T20:29:49.557Z,14.40
2022-08-22T20:35:00.431Z,14.30
2022-08-22T20:40:32.264Z,17.60
2022-08-22T20:46:00.891Z,15.10
2022-08-22T20:51:07.755Z,15.70
2022-08-22T20:56:11.950Z,13.80
2022-08-22T21:01:14.849Z,17.00
2022-08-22T21:06:24.026Z,14.50
2022-08-22T21:11:42.066Z,15.20
2022-08-22T21:21:47.899Z,17.60
2022-08-22T21:26:59.325Z,17.60
2022-08-22T21:32:14.341Z,16.30
2022-08-22T21:37:26.088Z,15.30
2022-08-22T21:42:44.621Z,15.00
2022-08-22T21:47:47.412Z,19.10
2022-08-22T21:52:56.479Z,14.40
2022-08-22T21:58:36.046Z,18.00
2022-08-22T22:03:37.982Z,15.90
2022-08-22T22:08:40.844Z,18.20
2022-08-22T22:13:43.787Z,19.00
2022-08-22T22:18:46.552Z,19.00
2022-08-22T22:23:50.715Z,18.00
2022-08-22T22:28:53.494Z,16.80
2022-08-22T22:33:56.347Z,17.30
2022-08-22T22:38:59.196Z,19.60
2022-08-22T22:44:02.165Z,15.70
2022-08-22T22:49:05.902Z,21.60
2022-08-22T22:54:08.707Z,17.70
2022-08-22T22:59:14.614Z,17.60
2022-08-22T23:04:17.846Z,16.70
2022-08-22T23:09:20.720Z,17.40
2022-08-22T23:14:32.103Z,17.90
2022-08-22T23:19:35.070Z,18.20
2022-08-22T23:24:38.853Z,19.70
2022-08-22T23:29:41.710Z,19.50
2022-08-22T23:34:46.552Z,20.60
2022-08-22T23:39:49.640Z,18.10
2022-08-22T23:44:52.579Z,16.20
2022-08-22T23:49:55.391Z,20.40
2022-08-22T23:54:58.223Z,18.00
